createdAt,value
2022-08-24T00:00:41.250Z,101605.91
2022-08-24T00:03:11.930Z,101607.28
2022-08-24T00:05:40.484Z,101607.31
2022-08-24T00:08:08.446Z,101603.09
2022-08-24T00:10:37.888Z,101608.44
2022-08-24T00:13:05.822Z,101596.09
2022-08-24T00:15:33.811Z,101600.13
2022-08-24T00:18:01.966Z,101599.34
2022-08-24T00:20:30.308Z,101608.56
2022-08-24T00:22:58.236Z,101605.13
2022-08-24T00:25:26.446Z,101610.03
2022-08-24T00:27:55.842Z,101618.44
2022-08-24T00:30:23.811Z,101624.41
2022-08-24T00:32:52.331Z,101610.00
2022-08-24T00:35:20.530Z,101626.59
2022-08-24T00:37:51.028Z,101618.09
2022-08-24T00:40:21.770Z,101614.47
2022-08-24T00:42:50.735Z,101611.34
2022-08-24T00:45:21.090Z,101619.09
2022-08-24T00:47:51.901Z,101620.38
2022-08-24T00:50:23.795Z,101623.00
2022-08-24T00:53:00.914Z,101614.88
2022-08-24T00:55:31.846Z,101624.13
2022-08-24T00:58:04.796Z,101630.13
2022-08-24T01:00:41.379Z,101624.13
2022-08-24T01:03:14.153Z,101625.50
2022-08-24T01:05:42.740Z,101623.03
2022-08-24T01:08:12.687Z,101621.38
2022-08-24T01:10:44.238Z,101619.63
2022-08-24T01:13:14.230Z,101619.47
2022-08-24T01:15:47.106Z,101614.81
2022-08-24T01:18:35.295Z,101625.38
2022-08-24T01:21:09.421Z,101611.75
2022-08-24T01:23:41.107Z,101627.00
2022-08-24T01:26:11.767Z,101618.22
2022-08-24T01:28:42.372Z,101624.78
2022-08-24T01:31:10.813Z,101630.63
2022-08-24T01:33:38.856Z,101630.31
2022-08-24T01:36:11.300Z,101620.22
2022-08-24T01:38:40.699Z,101624.78
2022-08-24T01:41:08.670Z,101630.03
2022-08-24T01:43:40.334Z,101630.72
2022-08-24T01:46:09.027Z,101625.13
2022-08-24T01:48:37.066Z,101625.28
2022-08-24T01:51:05.921Z,101621.94
2022-08-24T01:53:34.026Z,101621.78
2022-08-24T01:56:03.603Z,101614.72
2022-08-24T01:58:31.631Z,101622.81
2022-08-24T02:00:59.819Z,101624.44
2022-08-24T02:03:29.611Z,101627.16
2022-08-24T02:05:59.586Z,101620.78
2022-08-24T02:08:27.709Z,101630.97
2022-08-24T02:10:56.719Z,101631.38
2022-08-24T02:13:28.838Z,101631.28
2022-08-24T02:15:56.882Z,101633.66
2022-08-24T02:18:24.929Z,101632.03
2022-08-24T02:20:53.313Z,101626.03
2022-08-24T02:23:22.377Z,101628.81
2022-08-24T02:25:50.871Z,101622.41
2022-08-24T02:28:20.291Z,101622.69
2022-08-24T02:30:49.914Z,101629.91
2022-08-24T02:33:17.948Z,101630.63
2022-08-24T02:35:46.074Z,101629.72
2022-08-24T02:38:14.030Z,101628.44
2022-08-24T02:40:41.971Z,101630.53
2022-08-24T02:43:09.974Z,101636.59
2022-08-24T02:45:40.265Z,101628.09
2022-08-24T02:48:10.480Z,101630.22
2022-08-24T02:50:40.633Z,101632.91
2022-08-24T02:53:08.608Z,101632.94
2022-08-24T02:55:36.947Z,101632.06
2022-08-24T02:58:04.899Z,101627.28
2022-08-24T03:00:32.980Z,101633.34
2022-08-24T03:03:01.737Z,101632.66
2022-08-24T03:05:31.503Z,101634.25
2022-08-24T03:07:59.473Z,101632.88
2022-08-24T03:10:28.652Z,101630.81
2022-08-24T03:12:58.845Z,101626.25
2022-08-24T03:15:27.420Z,101629.63
2022-08-24T03:17:55.452Z,101628.84
2022-08-24T03:20:24.085Z,101636.19
2022-08-24T03:22:53.983Z,101626.16
2022-08-24T03:25:24.756Z,101628.41
2022-08-24T03:27:53.229Z,101630.75
2022-08-24T03:30:22.776Z,101618.41
2022-08-24T03:32:51.537Z,101625.66
2022-08-24T03:35:21.858Z,101631.66
2022-08-24T03:37:50.583Z,101630.59
2022-08-24T03:40:24.733Z,101640.66
2022-08-24T03:42:53.873Z,101638.34
2022-08-24T03:45:22.911Z,101627.06
2022-08-24T03:47:50.964Z,101621.66
2022-08-24T03:50:19.293Z,101621.56
2022-08-24T03:52:47.316Z,101620.34
2022-08-24T03:55:15.403Z,101628.59
2022-08-24T03:57:44.823Z,101632.50
2022-08-24T04:00:14.394Z,101629.25
2022-08-24T04:02:42.465Z,101644.44
2022-08-24T04:05:11.250Z,101638.06
2022-08-24T04:07:39.254Z,101647.63
2022-08-24T04:10:08.091Z,101646.09
2022-08-24T04:12:36.131Z,101648.22
2022-08-24T04:15:07.110Z,101644.94
2022-08-24T04:17:35.093Z,101649.75
2022-08-24T04:20:03.317Z,101661.28
2022-08-24T04:22:34.224Z,101661.44
2022-08-24T04:25:02.507Z,101664.84
2022-08-24T04:27:37.172Z,101658.16
2022-08-24T04:30:07.326Z,101651.44
2022-08-24T04:32:35.771Z,101649.91
2022-08-24T04:35:04.022Z,101644.25
2022-08-24T04:37:32.314Z,101646.84
2022-08-24T04:40:00.360Z,101649.41
2022-08-24T04:42:31.607Z,101648.88
2022-08-24T04:45:01.604Z,101643.06
2022-08-24T04:47:31.023Z,101652.50
2022-08-24T04:49:59.006Z,101656.09
2022-08-24T04:52:27.080Z,101651.31
2022-08-24T04:54:55.371Z,101653.38
2022-08-24T04:57:23.338Z,101657.66
2022-08-24T04:59:51.345Z,101651.28
2022-08-24T05:02:21.021Z,101665.88
2022-08-24T05:04:50.436Z,101672.09
2022-08-24T05:07:19.770Z,101665.56
2022-08-24T05:09:47.800Z,101673.38
2022-08-24T05:12:20.888Z,101673.72
2022-08-24T05:14:48.848Z,101678.44
2022-08-24T05:17:16.890Z,101678.03
2022-08-24T05:19:45.060Z,101668.56
2022-08-24T05:22:14.494Z,101680.97
2022-08-24T05:24:43.094Z,101685.13
2022-08-24T05:27:11.141Z,101692.69
2022-08-24T05:29:42.326Z,101692.47
2022-08-24T05:32:10.300Z,101699.63
2022-08-24T05:34:38.612Z,101694.22
2022-08-24T05:37:06.639Z,101702.03
2022-08-24T05:39:36.003Z,101700.16
2022-08-24T05:42:04.274Z,101698.63
2022-08-24T05:44:32.268Z,101706.41
2022-08-24T05:47:01.211Z,101698.63
2022-08-24T05:49:29.658Z,101708.00
2022-08-24T05:51:57.714Z,101702.53
2022-08-24T05:54:25.813Z,101709.75
2022-08-24T05:56:57.346Z,101714.22
2022-08-24T05:59:25.365Z,101712.13
2022-08-24T06:01:53.538Z,101711.06
2022-08-24T06:04:22.502Z,101706.81
2022-08-24T06:06:52.351Z,101706.09
2022-08-24T06:09:21.526Z,101700.28
2022-08-24T06:11:49.509Z,101707.53
2022-08-24T06:14:23.869Z,101706.63
2022-08-24T06:16:54.511Z,101706.78
2022-08-24T06:19:23.205Z,101710.91
2022-08-24T06:21:53.618Z,101713.59
2022-08-24T06:24:43.409Z,101709.59
2022-08-24T06:27:31.178Z,101713.03
2022-08-24T06:30:03.308Z,101710.06
2022-08-24T06:32:31.479Z,101706.59
2022-08-24T06:35:00.037Z,101715.34
2022-08-24T06:37:29.220Z,101711.56
2022-08-24T06:39:58.354Z,101717.44
2022-08-24T06:42:26.531Z,101716.25
2022-08-24T06:44:54.509Z,101707.78
2022-08-24T06:47:23.967Z,101708.88
2022-08-24T06:49:52.006Z,101711.25
2022-08-24T06:52:19.993Z,101716.00
2022-08-24T06:54:47.942Z,101717.16
2022-08-24T06:57:15.970Z,101718.69
2022-08-24T06:59:44.847Z,101716.38
2022-08-24T07:02:15.892Z,101717.94
2022-08-24T07:04:45.610Z,101718.50
2022-08-24T07:07:13.761Z,101715.78
2022-08-24T07:09:41.758Z,101718.91
2022-08-24T07:12:09.892Z,101722.28
2022-08-24T07:14:37.917Z,101733.50
2022-08-24T07:17:06.186Z,101740.41
2022-08-24T07:19:34.165Z,101745.53
2022-08-24T07:22:03.550Z,101744.75
2022-08-24T07:24:32.365Z,101736.72
2022-08-24T07:27:00.391Z,101741.50
2022-08-24T07:29:47.335Z,101743.97
2022-08-24T07:32:16.415Z,101738.44
2022-08-24T07:34:44.645Z,101752.72
2022-08-24T07:37:14.003Z,101749.78
2022-08-24T07:39:42.179Z,101757.19
2022-08-24T07:42:14.657Z,101749.78
2022-08-24T07:44:44.650Z,101757.69
2022-08-24T07:47:36.901Z,101751.97
2022-08-24T07:50:00.881Z,101757.84
2022-08-24T07:52:30.451Z,101751.44
2022-08-24T07:54:58.436Z,101757.94
2022-08-24T07:57:26.485Z,101750.31
2022-08-24T07:59:56.042Z,101758.34
2022-08-24T08:02:24.154Z,101758.59
2022-08-24T08:04:56.671Z,101759.75
2022-08-24T08:07:24.830Z,101762.53
2022-08-24T08:09:54.216Z,101769.22
2022-08-24T08:12:22.180Z,101761.59
2022-08-24T08:14:50.189Z,101762.78
2022-08-24T08:17:18.158Z,101762.88
2022-08-24T08:19:46.149Z,101763.47
2022-08-24T08:22:31.557Z,101763.97
2022-08-24T08:25:00.968Z,101762.75
2022-08-24T08:27:29.061Z,101770.28
2022-08-24T08:29:57.345Z,101775.97
2022-08-24T08:32:25.371Z,101762.53
2022-08-24T08:34:53.458Z,101766.91
2022-08-24T08:37:21.662Z,101778.75
2022-08-24T08:39:59.419Z,101776.13
2022-08-24T08:43:06.473Z,101777.84
2022-08-24T08:45:45.874Z,101775.94
2022-08-24T08:48:49.298Z,101769.47
2022-08-24T08:51:50.910Z,101772.16
2022-08-24T08:54:34.987Z,101782.00
2022-08-24T08:57:17.381Z,101779.53
2022-08-24T08:59:57.187Z,101774.47
2022-08-24T09:02:39.887Z,101776.41
2022-08-24T09:05:27.960Z,101775.94
2022-08-24T09:08:01.724Z,101761.47
2022-08-24T09:10:44.124Z,101767.44
2022-08-24T09:13:44.334Z,101766.78
2022-08-24T09:16:19.794Z,101762.31
2022-08-24T09:18:59.226Z,101774.91
2022-08-24T09:21:42.819Z,101769.13
2022-08-24T09:24:25.144Z,101755.91
2022-08-24T09:27:00.537Z,101762.66
2022-08-24T09:29:53.786Z,101763.28
2022-08-24T09:33:01.295Z,101758.13
2022-08-24T09:36:03.615Z,101752.97
2022-08-24T09:38:50.648Z,101758.28
2022-08-24T09:41:49.169Z,101748.94
2022-08-24T09:44:53.222Z,101754.53
2022-08-24T09:47:38.527Z,101761.53
2022-08-24T09:50:28.027Z,101749.75
2022-08-24T09:53:24.158Z,101749.44
2022-08-24T09:56:14.829Z,101744.72
2022-08-24T09:58:57.662Z,101748.94
2022-08-24T10:01:32.706Z,101740.16
2022-08-24T10:04:14.431Z,101749.41
2022-08-24T10:06:55.609Z,101748.88
2022-08-24T10:10:05.247Z,101749.28
2022-08-24T10:12:56.019Z,101734.28
2022-08-24T10:15:29.370Z,101737.00
2022-08-24T10:18:13.088Z,101742.34
2022-08-24T10:20:58.234Z,101728.88
2022-08-24T10:23:39.311Z,101733.28
2022-08-24T10:26:15.048Z,101733.91
2022-08-24T10:29:26.888Z,101737.41
2022-08-24T10:32:07.002Z,101727.97
2022-08-24T10:34:47.670Z,101726.50
2022-08-24T10:37:26.223Z,101732.69
2022-08-24T10:40:14.227Z,101730.00
2022-08-24T10:43:23.992Z,101735.13
2022-08-24T10:46:22.614Z,101738.09
2022-08-24T10:49:26.038Z,101724.88
2022-08-24T10:52:15.724Z,101722.69
2022-08-24T10:54:48.931Z,101724.78
2022-08-24T10:57:23.314Z,101720.16
2022-08-24T11:00:01.271Z,101725.66
2022-08-24T11:02:33.025Z,101728.53
2022-08-24T11:05:31.990Z,101705.34
2022-08-24T11:08:05.357Z,101709.13
2022-08-24T11:10:48.925Z,101707.84
2022-08-24T11:13:26.148Z,101724.22
2022-08-24T11:16:02.611Z,101716.09
2022-08-24T11:18:53.233Z,101712.13
2022-08-24T11:21:38.018Z,101718.44
2022-08-24T11:24:09.010Z,101719.28
2022-08-24T11:26:53.692Z,101719.13
2022-08-24T11:29:30.676Z,101721.84
2022-08-24T11:32:00.744Z,101714.56
2022-08-24T11:35:02.564Z,101710.16
2022-08-24T11:37:34.823Z,101713.44
2022-08-24T11:40:05.077Z,101717.72
2022-08-24T11:42:44.714Z,101720.53
2022-08-24T11:45:21.684Z,101707.66
2022-08-24T11:48:00.841Z,101726.59
2022-08-24T11:50:34.697Z,101716.47
2022-08-24T11:53:13.229Z,101726.50
2022-08-24T11:55:51.610Z,101721.56
2022-08-24T11:58:27.461Z,101730.69
2022-08-24T12:01:03.876Z,101722.88
2022-08-24T12:03:52.322Z,101722.25
2022-08-24T12:06:39.073Z,101723.88
2022-08-24T12:09:15.321Z,101722.81
2022-08-24T12:11:55.810Z,101719.69
2022-08-24T12:14:33.182Z,101712.66
2022-08-24T12:17:18.595Z,101710.94
2022-08-24T12:19:50.659Z,101717.34
2022-08-24T12:22:22.308Z,101715.78
2022-08-24T12:24:53.569Z,101712.03
2022-08-24T12:27:26.066Z,101708.63
2022-08-24T12:30:00.566Z,101709.16
2022-08-24T12:32:37.586Z,101700.22
2022-08-24T12:35:08.583Z,101704.38
2022-08-24T12:37:40.007Z,101710.31
2022-08-24T12:40:18.564Z,101707.63
2022-08-24T12:42:52.342Z,101720.25
2022-08-24T12:45:22.479Z,101707.31
2022-08-24T12:47:55.770Z,101711.44
2022-08-24T12:50:28.438Z,101709.16
2022-08-24T12:53:30.244Z,101714.38
2022-08-24T12:56:08.277Z,101702.88
2022-08-24T12:58:58.479Z,101709.28
2022-08-24T13:01:29.818Z,101709.47
2022-08-24T13:04:15.617Z,101702.47
2022-08-24T13:06:48.593Z,101711.47
2022-08-24T13:09:28.654Z,101704.91
2022-08-24T13:11:57.431Z,101711.72
2022-08-24T13:14:27.131Z,101708.75
2022-08-24T13:17:13.141Z,101706.16
2022-08-24T13:19:45.229Z,101715.72
2022-08-24T13:22:39.182Z,101707.72
2022-08-24T13:25:27.818Z,101708.16
2022-08-24T13:28:28.220Z,101708.03
2022-08-24T13:31:14.727Z,101708.59
2022-08-24T13:33:46.017Z,101702.34
2022-08-24T13:36:45.052Z,101702.66
2022-08-24T13:39:37.257Z,101694.50
2022-08-24T13:42:12.768Z,101702.09
2022-08-24T13:45:10.251Z,101696.75
2022-08-24T13:47:53.568Z,101694.81
2022-08-24T13:50:37.961Z,101700.75
2022-08-24T13:53:34.844Z,101697.03
2022-08-24T13:56:33.334Z,101694.34
2022-08-24T13:59:10.145Z,101693.31
2022-08-24T14:01:44.765Z,101688.16
2022-08-24T14:04:29.577Z,101685.63
2022-08-24T14:07:01.086Z,101680.59
2022-08-24T14:09:38.547Z,101687.56
2022-08-24T14:12:16.134Z,101684.06
2022-08-24T14:14:55.957Z,101683.16
2022-08-24T14:17:48.095Z,101682.06
2022-08-24T14:20:55.343Z,101679.78
2022-08-24T14:23:41.986Z,101683.31
2022-08-24T14:26:52.352Z,101680.78
2022-08-24T14:29:41.590Z,101661.53
2022-08-24T14:32:29.084Z,101684.41
2022-08-24T14:35:30.156Z,101680.66
2022-08-24T14:38:12.715Z,101672.84
2022-08-24T14:40:54.954Z,101673.66
2022-08-24T14:43:35.840Z,101683.56
2022-08-24T14:46:33.506Z,101669.47
2022-08-24T14:49:16.936Z,101675.97
2022-08-24T14:52:12.552Z,101675.22
2022-08-24T14:54:53.089Z,101679.38
2022-08-24T14:57:38.429Z,101684.22
2022-08-24T15:00:12.380Z,101679.56
2022-08-24T15:03:27.074Z,101676.44
2022-08-24T15:06:26.096Z,101679.78
2022-08-24T15:08:55.909Z,101677.22
2022-08-24T15:11:26.405Z,101678.72
2022-08-24T15:13:58.696Z,101672.09
2022-08-24T15:16:29.538Z,101670.00
2022-08-24T15:19:05.187Z,101674.31
2022-08-24T15:21:42.548Z,101675.78
2022-08-24T15:27:02.496Z,101663.03
2022-08-24T15:29:32.908Z,101669.72
2022-08-24T15:32:05.066Z,101650.97
2022-08-24T15:34:41.743Z,101661.47
2022-08-24T15:37:10.735Z,101651.56
2022-08-24T15:39:38.842Z,101659.50
2022-08-24T15:42:11.671Z,101652.69
2022-08-24T15:44:41.220Z,101654.66
2022-08-24T15:47:20.611Z,101653.81
2022-08-24T15:49:53.727Z,101652.09
2022-08-24T15:52:48.230Z,101651.53
2022-08-24T15:55:36.332Z,101646.75
2022-08-24T15:58:29.604Z,101654.97
2022-08-24T16:01:24.323Z,101655.47
2022-08-24T16:03:55.618Z,101669.34
2022-08-24T16:06:37.603Z,101657.13
2022-08-24T16:09:10.442Z,101669.28
2022-08-24T16:11:42.967Z,101663.63
2022-08-24T16:14:18.260Z,101659.56
2022-08-24T16:16:47.060Z,101664.47
2022-08-24T16:19:25.965Z,101654.03
2022-08-24T16:22:01.095Z,101657.38
2022-08-24T16:24:32.729Z,101656.25
2022-08-24T16:27:10.608Z,101663.38
2022-08-24T16:29:51.014Z,101668.41
2022-08-24T16:32:30.222Z,101663.56
2022-08-24T16:35:23.200Z,101670.97
2022-08-24T16:37:54.823Z,101670.09
2022-08-24T16:40:24.257Z,101675.00
2022-08-24T16:42:52.378Z,101667.03
2022-08-24T16:45:22.291Z,101670.47
2022-08-24T16:47:50.720Z,101660.63
2022-08-24T16:50:20.806Z,101671.00
2022-08-24T16:52:50.298Z,101667.16
2022-08-24T16:55:19.917Z,101668.78
2022-08-24T16:57:48.336Z,101673.25
2022-08-24T17:00:19.281Z,101666.50
2022-08-24T17:02:49.784Z,101668.19
2022-08-24T17:05:18.381Z,101678.69
2022-08-24T17:07:46.847Z,101666.50
2022-08-24T17:10:17.801Z,101663.69
2022-08-24T17:12:48.751Z,101665.16
2022-08-24T17:15:17.441Z,101678.69
2022-08-24T17:17:49.494Z,101669.38
2022-08-24T17:20:17.543Z,101665.06
2022-08-24T17:22:45.604Z,101665.41
2022-08-24T17:25:13.616Z,101668.19
2022-08-24T17:27:41.702Z,101674.44
2022-08-24T17:30:12.545Z,101673.22
2022-08-24T17:32:40.585Z,101673.66
2022-08-24T17:35:09.221Z,101679.91
2022-08-24T17:37:38.494Z,101672.84
2022-08-24T17:40:09.894Z,101679.16
2022-08-24T17:42:50.781Z,101678.22
2022-08-24T17:45:22.785Z,101685.09
2022-08-24T17:47:52.494Z,101682.69
2022-08-24T17:50:21.759Z,101686.78
2022-08-24T17:53:00.476Z,101693.00
2022-08-24T17:55:28.813Z,101686.13
2022-08-24T17:57:56.830Z,101696.22
2022-08-24T18:00:26.256Z,101695.41
2022-08-24T18:02:54.224Z,101700.69
2022-08-24T18:05:22.256Z,101704.63
2022-08-24T18:07:53.991Z,101699.69
2022-08-24T18:10:24.743Z,101704.09
2022-08-24T18:12:53.243Z,101701.38
2022-08-24T18:15:21.350Z,101704.56
2022-08-24T18:17:53.170Z,101702.38
2022-08-24T18:20:22.524Z,101709.28
2022-08-24T18:22:53.755Z,101711.66
2022-08-24T18:25:24.145Z,101717.25
2022-08-24T18:27:53.856Z,101717.47
2022-08-24T18:30:24.379Z,101720.56
2022-08-24T18:32:58.670Z,101724.03
2022-08-24T18:35:26.751Z,101728.25
2022-08-24T18:37:54.810Z,101733.31
2022-08-24T18:40:23.141Z,101734.94
2022-08-24T18:42:51.760Z,101736.13
2022-08-24T18:45:19.801Z,101735.50
2022-08-24T18:47:53.278Z,101736.09
2022-08-24T18:50:23.155Z,101737.50
2022-08-24T18:52:51.358Z,101745.28
2022-08-24T18:55:19.379Z,101741.19
2022-08-24T18:57:47.418Z,101741.50
2022-08-24T19:00:16.401Z,101744.25
2022-08-24T19:02:45.110Z,101746.00
2022-08-24T19:05:16.244Z,101749.88
2022-08-24T19:07:47.332Z,101751.09
2022-08-24T19:10:17.449Z,101764.91
2022-08-24T19:12:47.307Z,101754.84
2022-08-24T19:15:29.105Z,101746.63
2022-08-24T19:18:05.512Z,101753.69
2022-08-24T19:20:34.467Z,101750.91
2022-08-24T19:23:08.495Z,101762.31
2022-08-24T19:25:38.586Z,101754.50
2022-08-24T19:28:07.147Z,101755.88
2022-08-24T19:30:35.304Z,101755.69
2022-08-24T19:33:04.097Z,101755.66
2022-08-24T19:35:32.825Z,101757.19
2022-08-24T19:38:00.855Z,101766.81
2022-08-24T19:40:32.204Z,101765.22
2022-08-24T19:43:03.376Z,101766.47
2022-08-24T19:45:49.272Z,101776.31
2022-08-24T19:48:18.016Z,101767.22
2022-08-24T19:50:46.209Z,101768.50
2022-08-24T19:53:14.271Z,101771.28
2022-08-24T19:55:45.743Z,101776.00
2022-08-24T19:58:23.781Z,101766.59
2022-08-24T20:00:57.341Z,101770.00
2022-08-24T20:03:25.503Z,101775.97
2022-08-24T20:06:11.524Z,101780.97
2022-08-24T20:08:39.918Z,101787.03
2022-08-24T20:11:09.997Z,101783.75
2022-08-24T20:13:38.092Z,101776.78
2022-08-24T20:16:10.476Z,101785.16
2022-08-24T20:18:39.615Z,101788.19
2022-08-24T20:21:08.205Z,101785.53
2022-08-24T20:23:36.233Z,101789.69
2022-08-24T20:26:05.601Z,101796.03
2022-08-24T20:28:39.311Z,101797.53
2022-08-24T20:31:07.558Z,101802.53
2022-08-24T20:33:35.689Z,101801.50
2022-08-24T20:36:04.217Z,101804.00
2022-08-24T20:38:33.873Z,101797.03
2022-08-24T20:41:02.766Z,101792.72
2022-08-24T20:43:30.972Z,101797.97
2022-08-24T20:46:00.419Z,101795.06
2022-08-24T20:48:32.696Z,101798.44
2022-08-24T20:51:01.342Z,101799.59
2022-08-24T20:53:29.414Z,101799.53
2022-08-24T20:55:58.276Z,101798.00
2022-08-24T20:58:27.044Z,101795.97
2022-08-24T21:00:55.133Z,101795.44
2022-08-24T21:03:24.626Z,101801.78
2022-08-24T21:05:52.682Z,101800.66
2022-08-24T21:08:20.935Z,101801.66
2022-08-24T21:10:53.381Z,101801.41
2022-08-24T21:13:21.799Z,101800.50
2022-08-24T21:15:51.812Z,101796.81
2022-08-24T21:18:20.793Z,101798.53
2022-08-24T21:21:04.302Z,101798.63
2022-08-24T21:23:33.354Z,101795.91
2022-08-24T21:26:02.256Z,101798.19
2022-08-24T21:28:30.518Z,101793.34
2022-08-24T21:31:02.511Z,101799.72
2022-08-24T21:33:50.971Z,101806.25
2022-08-24T21:36:23.471Z,101806.81
2022-08-24T21:38:53.442Z,101806.06
2022-08-24T21:41:22.507Z,101805.00
2022-08-24T21:43:50.797Z,101817.97
2022-08-24T21:46:18.992Z,101812.72
2022-08-24T21:48:49.588Z,101811.41
2022-08-24T21:51:17.566Z,101806.47
2022-08-24T21:53:47.422Z,101810.09
2022-08-24T21:56:16.634Z,101813.81
2022-08-24T21:58:47.247Z,101816.31
2022-08-24T22:01:16.037Z,101817.63
2022-08-24T22:03:44.219Z,101813.25
2022-08-24T22:06:13.522Z,101819.94
2022-08-24T22:08:43.476Z,101812.09
2022-08-24T22:11:15.594Z,101812.56
2022-08-24T22:13:43.618Z,101818.41
2022-08-24T22:16:12.603Z,101807.91
2022-08-24T22:18:41.007Z,101812.03
2022-08-24T22:21:11.125Z,101808.38
2022-08-24T22:23:48.038Z,101801.16
2022-08-24T22:26:17.665Z,101809.75
2022-08-24T22:28:45.765Z,101803.53
2022-08-24T22:31:19.018Z,101802.84
2022-08-24T22:33:47.361Z,101807.13
2022-08-24T22:36:16.783Z,101795.06
2022-08-24T22:38:44.922Z,101787.03
2022-08-24T22:41:13.182Z,101789.97
2022-08-24T22:44:00.556Z,101792.47
2022-08-24T22:46:29.333Z,101786.94
2022-08-24T22:48:57.409Z,101788.91
2022-08-24T22:51:25.502Z,101787.41
2022-08-24T22:53:53.951Z,101787.06
2022-08-24T22:56:48.008Z,101782.94
2022-08-24T22:59:19.813Z,101792.81
2022-08-24T23:01:50.300Z,101780.09
2022-08-24T23:04:54.799Z,101781.16
2022-08-24T23:07:23.000Z,101791.63
2022-08-24T23:10:10.783Z,101781.72
2022-08-24T23:12:38.846Z,101781.66
2022-08-24T23:15:09.466Z,101795.25
2022-08-24T23:17:37.458Z,101792.97
2022-08-24T23:20:06.700Z,101782.22
2022-08-24T23:22:36.596Z,101787.47
2022-08-24T23:25:06.113Z,101790.78
2022-08-24T23:27:38.273Z,101789.44
2022-08-24T23:30:11.681Z,101798.66
2022-08-24T23:32:40.541Z,101796.88
2022-08-24T23:35:09.897Z,101790.88
2022-08-24T23:37:42.571Z,101789.50
2022-08-24T23:40:11.690Z,101792.09
2022-08-24T23:42:39.767Z,101789.84
2022-08-24T23:45:11.855Z,101789.16
2022-08-24T23:47:40.642Z,101796.59
2022-08-24T23:50:10.863Z,101788.84
2022-08-24T23:52:40.198Z,101786.63
2022-08-24T23:55:21.046Z,101799.22
2022-08-24T23:57:51.190Z,101795.94
